Time;durP1;ratioP1;P1;durP2;ratioP2;P2;SDS_P1;SDS_P2;PMS_P1;PMS_P2;Temp;Humidity;BMP_temperature;BMP_pressure;BME280_temperature;BME280_humidity;BME280_pressure;Samples;Min_cycle;Max_cycle;Signal;HPM_P1;HPM_P2
2023/07/13 00:00:11;;;;;;;10.90;6.30;;;;;;;20.36;100.00;98728.21;273203;1261;22381;-77
2023/07/13 00:06:53;;;;;;;11.50;7.10;;;;;;;20.38;100.00;98743.79;271766;1269;22535;-77
2023/07/13 00:12:55;;;;;;;11.40;6.70;;;;;;;20.37;100.00;98739.64;271945;1267;22686;-80
2023/07/13 00:19:20;;;;;;;11.10;7.20;;;;;;;20.25;100.00;98729.19;273187;1267;22397;-79
2023/07/13 00:25:24;;;;;;;14.90;7.20;;;;;;;20.02;100.00;98721.17;273549;1270;22648;-79
2023/07/13 00:31:25;;;;;;;12.10;8.00;;;;;;;19.93;100.00;98725.96;272248;1267;22268;-78
2023/07/13 00:37:27;;;;;;;12.80;8.00;;;;;;;19.91;100.00;98736.67;272234;1262;22335;-79
2023/07/13 00:43:29;;;;;;;12.30;8.70;;;;;;;19.81;100.00;98748.58;273510;1269;22436;-78
2023/07/13 00:49:32;;;;;;;15.80;8.10;;;;;;;19.74;100.00;98757.52;273433;1257;22395;-79
2023/07/13 00:55:35;;;;;;;15.90;8.60;;;;;;;19.62;100.00;98762.30;273525;1257;22208;-78
2023/07/13 01:01:36;;;;;;;12.40;8.20;;;;;;;19.57;100.00;98760.29;272310;1254;22543;-79
2023/07/13 01:07:59;;;;;;;14.00;8.60;;;;;;;19.58;100.00;98759.23;272623;1269;22398;-78
2023/07/13 01:14:01;;;;;;;10.30;7.10;;;;;;;19.54;100.00;98769.59;273610;1269;22453;-78
2023/07/13 01:20:04;;;;;;;12.20;6.30;;;;;;;19.52;100.00;98742.38;273445;1269;23022;-78
2023/07/13 01:26:26;;;;;;;10.40;7.10;;;;;;;19.49;100.00;98712.72;273630;1269;23006;-78
2023/07/13 01:32:31;;;;;;;11.60;6.90;;;;;;;19.45;100.00;98709.00;273649;1269;22167;-79
2023/07/13 01:38:33;;;;;;;8.70;6.80;;;;;;;19.40;100.00;98703.30;273466;1269;23306;-80
2023/07/13 01:44:57;;;;;;;14.60;8.60;;;;;;;19.36;100.00;98703.49;273672;1269;22580;-80
2023/07/13 01:51:19;;;;;;;9.60;7.40;;;;;;;19.33;100.00;98693.67;273604;1257;22463;-79
2023/07/13 01:58:01;;;;;;;10.60;7.30;;;;;;;19.31;100.00;98685.41;273470;1270;22627;-78
2023/07/13 02:04:24;;;;;;;7.40;6.40;;;;;;;19.30;100.00;98660.67;273567;1269;22337;-81
2023/07/13 02:10:28;;;;;;;9.60;6.50;;;;;;;19.31;100.00;98647.02;273629;1269;25052;-79
2023/07/13 02:16:30;;;;;;;11.20;6.90;;;;;;;19.26;100.00;98629.63;273456;1269;22450;-79
2023/07/13 02:22:32;;;;;;;10.60;7.70;;;;;;;19.20;100.00;98626.77;273666;1258;22268;-79
2023/07/13 02:28:33;;;;;;;7.60;6.60;;;;;;;19.08;100.00;98632.44;273563;1260;22245;-81
2023/07/13 02:34:38;;;;;;;7.60;6.20;;;;;;;19.05;100.00;98640.30;274104;1275;22184;-78
2023/07/13 02:40:40;;;;;;;7.90;6.90;;;;;;;19.04;100.00;98643.98;273426;1267;22553;-79
2023/07/13 02:46:41;;;;;;;8.70;6.40;;;;;;;19.04;100.00;98644.61;272254;1254;22431;-79
2023/07/13 02:52:43;;;;;;;7.30;6.20;;;;;;;18.97;100.00;98643.85;271099;1253;22551;-79
2023/07/13 02:59:25;;;;;;;10.00;6.60;;;;;;;18.86;100.00;98642.10;271950;1267;23291;-79
2023/07/13 03:06:08;;;;;;;10.70;5.90;;;;;;;18.66;100.00;98654.45;272513;1269;22566;-79
2023/07/13 03:12:30;;;;;;;12.10;6.60;;;;;;;18.55;100.00;98677.46;271165;1253;22572;-79
2023/07/13 03:18:32;;;;;;;12.30;6.80;;;;;;;18.50;100.00;98682.51;273261;1269;240964;-79
2023/07/13 03:24:56;;;;;;;8.50;7.10;;;;;;;18.51;100.00;98671.79;273245;1269;22421;-80
2023/07/13 03:31:23;;;;;;;8.80;7.50;;;;;;;18.51;100.00;98672.83;273448;1267;22382;-80
2023/07/13 03:38:07;;;;;;;9.60;6.90;;;;;;;18.56;100.00;98673.96;273531;1269;22384;-80
2023/07/13 03:44:27;;;;;;;9.20;6.60;;;;;;;18.61;100.00;98679.92;273341;1268;22453;-80
2023/07/13 03:50:49;;;;;;;10.40;6.70;;;;;;;18.65;100.00;98654.38;273633;1269;22217;-79
2023/07/13 03:56:51;;;;;;;11.50;5.90;;;;;;;18.67;100.00;98639.05;273007;1269;22662;-79
2023/07/13 04:02:53;;;;;;;8.60;5.60;;;;;;;18.66;100.00;98651.60;272188;1260;22395;-80
2023/07/13 04:08:57;;;;;;;7.20;5.90;;;;;;;18.69;100.00;98665.78;271100;1268;22499;-80
2023/07/13 04:14:59;;;;;;;7.80;5.60;;;;;;;18.70;100.00;98671.05;271773;1269;22551;-80
2023/07/13 04:21:01;;;;;;;7.70;5.60;;;;;;;18.69;100.00;98675.98;272682;1260;24279;-81
2023/07/13 04:27:03;;;;;;;6.90;6.10;;;;;;;18.79;100.00;98681.97;273251;1269;22143;-80
2023/07/13 04:33:05;;;;;;;9.20;6.30;;;;;;;18.96;100.00;98689.61;273267;1257;22870;-78
2023/07/13 04:39:06;;;;;;;8.90;5.60;;;;;;;19.12;100.00;98688.52;273610;1268;22645;-78
2023/07/13 04:45:10;;;;;;;8.20;6.20;;;;;;;19.29;100.00;98684.58;272956;1259;22524;-80
2023/07/13 04:51:12;;;;;;;10.00;6.80;;;;;;;19.42;100.00;98673.73;272779;1257;22273;-81
2023/07/13 04:57:13;;;;;;;10.50;6.30;;;;;;;19.52;100.00;98661.46;273603;1258;22348;-80
2023/07/13 05:03:25;;;;;;;8.80;5.90;;;;;;;19.62;100.00;98655.03;273552;1268;23115;-80
2023/07/13 05:09:27;;;;;;;7.30;6.00;;;;;;;19.74;100.00;98660.78;271213;1269;22543;-79
2023/07/13 05:15:28;;;;;;;10.20;6.00;;;;;;;19.90;100.00;98660.05;271589;1269;22487;-80
2023/07/13 05:21:33;;;;;;;10.40;6.20;;;;;;;20.01;100.00;98660.23;273419;1268;23167;-80
2023/07/13 05:27:35;;;;;;;10.80;6.30;;;;;;;20.12;100.00;98655.14;273492;1269;23138;-80
2023/07/13 05:33:37;;;;;;;9.40;5.50;;;;;;;20.23;100.00;98661.53;273639;1268;22421;-80
2023/07/13 05:39:59;;;;;;;11.30;6.80;;;;;;;20.33;100.00;98660.65;273743;1267;22166;-81
2023/07/13 05:46:00;;;;;;;9.90;6.20;;;;;;;20.42;100.00;98652.81;273573;1269;22190;-81
2023/07/13 05:52:02;;;;;;;8.20;6.00;;;;;;;20.55;100.00;98652.38;273554;1269;22332;-80
2023/07/13 05:58:05;;;;;;;10.50;6.40;;;;;;;20.66;100.00;98656.41;273268;1269;22697;-81
2023/07/13 06:04:07;;;;;;;9.30;5.60;;;;;;;20.74;100.00;98660.89;273593;1253;22251;-81
2023/07/13 06:10:50;;;;;;;8.80;5.50;;;;;;;20.82;100.00;98660.71;271295;1265;24654;-81
2023/07/13 06:17:00;;;;;;;8.30;5.60;;;;;;;20.88;100.00;98656.35;272490;1269;22551;-80
2023/07/13 06:23:26;;;;;;;8.30;5.80;;;;;;;21.03;100.00;98654.39;272138;1269;23127;-80
2023/07/13 06:29:49;;;;;;;7.80;6.20;;;;;;;21.23;100.00;98646.44;273405;1269;23185;-81
2023/07/13 06:35:52;;;;;;;6.70;5.70;;;;;;;21.42;100.00;98648.50;273298;1269;23135;-82
2023/07/13 06:41:53;;;;;;;6.90;4.90;;;;;;;21.50;100.00;98652.01;273611;1259;22243;-81
2023/07/13 06:48:17;;;;;;;6.90;5.50;;;;;;;21.61;100.00;98663.42;273560;1264;22896;-80
2023/07/13 06:55:57;;;;;;;8.60;5.30;;;;;;;21.78;100.00;98668.77;273676;1269;22152;-78
2023/07/13 07:02:25;;;;;;;6.30;4.60;;;;;;;22.12;100.00;98673.70;272853;1269;22285;-78
2023/07/13 07:08:54;;;;;;;9.10;5.00;;;;;;;22.47;100.00;98671.64;273699;1252;22463;-78
2023/07/13 07:14:56;;;;;;;10.90;5.30;;;;;;;22.90;100.00;98656.23;273683;1266;22220;-80
2023/07/13 07:21:01;;;;;;;6.70;4.20;;;;;;;23.23;100.00;98657.18;273665;1256;23152;-80
2023/07/13 07:27:03;;;;;;;6.10;4.40;;;;;;;23.50;100.00;98656.64;273622;1269;22439;-79
2023/07/13 07:33:26;;;;;;;5.40;4.30;;;;;;;23.73;100.00;98650.52;273737;1269;22383;-78
2023/07/13 07:40:09;;;;;;;7.30;4.70;;;;;;;24.00;100.00;98651.35;273930;1259;22232;-79
2023/07/13 07:46:46;;;;;;;8.10;5.40;;;;;;;24.24;100.00;98645.45;270724;1269;23457;-78
2023/07/13 07:52:48;;;;;;;6.30;3.90;;;;;;;24.39;100.00;98646.30;270802;1269;22564;-79
2023/07/13 07:58:50;;;;;;;6.90;4.70;;;;;;;24.51;100.00;98652.96;270100;1268;22212;-79
2023/07/13 08:04:52;;;;;;;8.40;4.20;;;;;;;24.55;100.00;98663.13;273453;1269;22293;-79
2023/07/13 08:11:14;;;;;;;8.20;4.10;;;;;;;24.48;100.00;98664.94;273505;1269;22330;-80
2023/07/13 08:17:37;;;;;;;7.30;4.40;;;;;;;24.54;100.00;98663.57;273444;1266;22765;-79
2023/07/13 08:23:38;;;;;;;6.00;4.00;;;;;;;24.57;100.00;98659.05;272011;1268;22598;-80
2023/07/13 08:29:40;;;;;;;7.60;4.20;;;;;;;24.57;100.00;98656.61;272384;1267;22379;-79
2023/07/13 08:35:42;;;;;;;11.70;4.80;;;;;;;24.65;100.00;98658.09;273188;1261;22596;-78
2023/07/13 08:41:50;;;;;;;6.40;4.40;;;;;;;24.66;99.78;98659.01;273264;1256;23048;-78
2023/07/13 08:48:22;;;;;;;12.30;5.00;;;;;;;24.67;99.17;98654.77;273327;1268;22471;-78
2023/07/13 08:54:45;;;;;;;6.90;4.50;;;;;;;24.70;98.32;98649.16;273710;1270;22178;-78
2023/07/13 09:01:22;;;;;;;8.40;4.50;;;;;;;24.58;97.65;98637.20;272035;1269;22487;-81
2023/07/13 09:08:02;;;;;;;9.40;4.90;;;;;;;24.47;97.68;98625.82;271156;1269;23535;-78
2023/07/13 09:14:34;;;;;;;8.00;4.70;;;;;;;24.48;98.02;98614.86;273223;1271;22265;-78
2023/07/13 09:21:01;;;;;;;5.50;4.00;;;;;;;24.40;97.14;98616.00;273148;1269;22481;-78
2023/07/13 09:27:09;;;;;;;5.70;4.40;;;;;;;24.24;96.57;98615.00;273166;1268;22265;-78
2023/07/13 09:33:12;;;;;;;4.50;3.90;;;;;;;24.09;96.27;98619.74;271570;1260;22547;-79
2023/07/13 09:39:41;;;;;;;4.90;3.80;;;;;;;24.02;96.69;98622.80;272315;1269;22217;-79
2023/07/13 09:45:45;;;;;;;5.10;4.30;;;;;;;23.96;96.91;98626.91;273028;1269;22136;-83
2023/07/13 09:51:48;;;;;;;7.30;4.00;;;;;;;23.91;96.89;98633.27;273541;1270;23441;-78
2023/07/13 09:57:51;;;;;;;8.40;4.40;;;;;;;23.83;96.49;98637.91;270576;1269;22604;-78
2023/07/13 10:03:53;;;;;;;4.90;3.90;;;;;;;23.70;96.13;98644.61;268999;1269;22535;-77
2023/07/13 10:09:58;;;;;;;9.80;3.70;;;;;;;23.49;96.38;98645.77;268880;1259;22536;-78
2023/07/13 10:16:00;;;;;;;8.20;4.90;;;;;;;23.27;97.11;98652.54;269318;1259;23633;-82
2023/07/13 10:22:13;;;;;;;9.80;6.10;;;;;;;23.07;98.45;98655.23;271430;1269;22436;-81
2023/07/13 10:28:51;;;;;;;9.40;6.00;;;;;;;22.90;99.78;98661.41;271836;1259;22483;-81
2023/07/13 10:35:02;;;;;;;10.90;6.80;;;;;;;22.71;100.00;98677.46;271951;1262;23368;-80
2023/07/13 10:41:30;;;;;;;14.60;7.50;;;;;;;22.53;100.00;98688.61;273093;1269;22190;-80
2023/07/13 10:47:55;;;;;;;11.00;7.80;;;;;;;22.24;100.00;98693.04;273508;1269;22277;-81
2023/07/13 10:54:17;;;;;;;12.50;8.70;;;;;;;21.98;100.00;98695.36;271214;1269;22557;-82
2023/07/13 11:00:19;;;;;;;13.90;8.60;;;;;;;21.83;100.00;98709.84;274055;1269;22166;-82
2023/07/13 11:06:22;;;;;;;12.50;10.00;;;;;;;21.70;100.00;98723.03;273550;1268;23513;-82
2023/07/13 11:13:10;;;;;;;15.10;10.10;;;;;;;21.57;100.00;98727.55;273622;1269;22393;-82
2023/07/13 11:19:55;;;;;;;16.00;10.40;;;;;;;21.38;100.00;98733.45;273765;1269;22252;-82
2023/07/13 11:26:47;;;;;;;18.30;10.50;;;;;;;21.09;100.00;98752.20;269591;1269;23002;-81
2023/07/13 11:33:22;;;;;;;11.60;7.70;;;;;;;20.79;100.00;98784.55;270906;1269;22547;-81
2023/07/13 11:39:38;;;;;;;5.30;2.30;;;;;;;20.31;100.00;98815.00;272736;1269;22424;-82
2023/07/13 11:45:40;;;;;;;10.30;2.30;;;;;;;19.45;100.00;98835.89;273581;1269;22417;-81
2023/07/13 11:51:55;;;;;;;8.70;2.90;;;;;;;18.78;100.00;98842.59;273442;1269;22203;-82
2023/07/13 11:57:58;;;;;;;7.30;3.20;;;;;;;18.26;100.00;98860.09;273594;1269;22352;-82
2023/07/13 12:04:23;;;;;;;4.70;2.80;;;;;;;18.12;100.00;98883.20;273821;1270;22190;-82
2023/07/13 12:10:48;;;;;;;8.00;2.90;;;;;;;18.18;100.00;98889.95;273954;1270;22354;-83
2023/07/13 12:17:34;;;;;;;5.00;2.80;;;;;;;18.27;100.00;98891.91;273274;1268;22427;-83
2023/07/13 12:23:36;;;;;;;8.30;2.60;;;;;;;18.26;100.00;98895.95;273582;1269;22434;-83
2023/07/13 12:30:00;;;;;;;4.40;2.00;;;;;;;18.30;100.00;98902.13;272955;1265;22551;-83
2023/07/13 12:36:42;;;;;;;5.70;2.20;;;;;;;18.16;100.00;98907.23;273830;1269;22944;-83
2023/07/13 12:43:14;;;;;;;4.60;2.40;;;;;;;18.09;100.00;98899.72;273491;1253;22192;-83
2023/07/13 12:49:40;;;;;;;5.60;2.50;;;;;;;18.20;100.00;98892.22;273490;1269;22475;-83
2023/07/13 12:56:22;;;;;;;4.80;2.70;;;;;;;18.33;100.00;98894.63;272599;1269;22644;-82
2023/07/13 13:03:19;;;;;;;4.50;2.60;;;;;;;18.43;100.00;98895.77;273517;1269;22198;-79
2023/07/13 13:09:22;;;;;;;3.80;2.30;;;;;;;18.51;100.00;98897.56;273071;1269;23653;-81
2023/07/13 13:15:24;;;;;;;5.20;2.90;;;;;;;18.55;100.00;98900.17;272822;1269;23478;-80
2023/07/13 13:21:26;;;;;;;2.90;2.40;;;;;;;18.53;100.00;98906.08;273446;1268;24531;-80
2023/07/13 13:27:29;;;;;;;8.40;2.80;;;;;;;18.54;100.00;98901.14;273511;1269;23945;-79
2023/07/13 13:33:31;;;;;;;5.70;3.40;;;;;;;18.62;100.00;98895.73;273675;1259;22972;-79
2023/07/13 13:39:55;;;;;;;3.10;2.30;;;;;;;18.73;100.00;98890.80;273765;1269;22368;-79
2023/07/13 13:46:11;;;;;;;5.50;2.80;;;;;;;18.73;100.00;98892.56;274031;1257;22904;-79
2023/07/13 13:52:13;;;;;;;7.30;2.40;;;;;;;18.74;100.00;98896.34;272885;1269;22644;-79
2023/07/13 13:58:15;;;;;;;4.60;2.30;;;;;;;18.81;100.00;98903.54;270345;1269;22519;-79
2023/07/13 14:04:38;;;;;;;4.00;2.20;;;;;;;18.93;100.00;98903.57;270534;1266;24224;-79
2023/07/13 14:11:11;;;;;;;4.30;3.20;;;;;;;19.06;100.00;98910.70;271113;1268;22844;-79
2023/07/13 14:17:21;;;;;;;6.30;3.60;;;;;;;19.17;100.00;98901.79;272752;1259;23635;-80
2023/07/13 14:23:23;;;;;;;7.20;4.00;;;;;;;19.24;100.00;98897.10;269927;1264;24439;-78
2023/07/13 14:29:25;;;;;;;10.40;4.80;;;;;;;19.22;100.00;98899.67;270684;1260;25344;-78
2023/07/13 14:35:29;;;;;;;8.20;5.00;;;;;;;19.23;100.00;98897.42;271079;1269;22264;-79
2023/07/13 14:41:31;;;;;;;3.60;3.20;;;;;;;19.28;100.00;98905.42;273599;1269;23175;-79
2023/07/13 14:47:52;;;;;;;9.20;3.40;;;;;;;19.36;100.00;98906.09;274077;1272;22199;-78
2023/07/13 14:53:54;;;;;;;5.90;3.50;;;;;;;19.48;100.00;98900.63;271756;1269;22607;-80
2023/07/13 14:59:56;;;;;;;4.90;3.00;;;;;;;19.55;100.00;98906.17;270688;1269;24314;-79
2023/07/13 15:05:59;;;;;;;4.20;3.00;;;;;;;19.55;100.00;98930.52;270630;1269;22525;-80
2023/07/13 15:12:01;;;;;;;5.00;3.40;;;;;;;19.57;100.00;98945.20;271204;1269;22545;-80
2023/07/13 15:18:02;;;;;;;5.90;4.00;;;;;;;19.51;100.00;98940.13;268739;1269;5384592;-81
2023/07/13 15:24:09;;;;;;;4.50;3.10;;;;;;;19.50;100.00;98927.45;273707;1269;22450;-80
2023/07/13 15:30:11;;;;;;;7.90;4.20;;;;;;;19.47;100.00;98928.73;273525;1269;22331;-81
2023/07/13 15:36:13;;;;;;;5.80;4.30;;;;;;;19.47;100.00;98929.52;273296;1269;22389;-82
2023/07/13 15:42:16;;;;;;;6.80;4.10;;;;;;;19.52;100.00;98931.54;273455;1269;22545;-83
2023/07/13 15:48:27;;;;;;;5.50;3.90;;;;;;;19.53;100.00;98937.39;274044;1275;23302;-82
2023/07/13 15:54:29;;;;;;;10.00;4.10;;;;;;;19.56;100.00;98943.67;273538;1269;22859;-81
2023/07/13 16:00:31;;;;;;;6.20;4.00;;;;;;;19.58;100.00;98938.30;271656;1269;22587;-84
2023/07/13 16:06:52;;;;;;;7.30;4.40;;;;;;;19.62;100.00;98949.44;272106;1269;22515;-81
2023/07/13 16:12:55;;;;;;;8.80;4.80;;;;;;;19.66;100.00;98961.08;271362;1269;22428;-82
2023/07/13 16:18:59;;;;;;;7.10;4.20;;;;;;;19.63;100.00;98967.44;271165;1269;22618;-82
2023/07/13 16:25:06;;;;;;;8.50;4.60;;;;;;;19.61;100.00;98971.52;272561;1269;22628;-81
2023/07/13 16:31:39;;;;;;;;;;;;;;;19.55;100.00;98979.77;273160;1269;22494;-82
2023/07/13 16:37:41;;;;;;;15.90;9.80;;;;;;;19.46;100.00;98981.80;272768;1269;23017;-83
2023/07/13 16:43:45;;;;;;;13.80;8.60;;;;;;;19.42;100.00;98985.25;273004;1257;22360;-84
2023/07/13 16:50:18;;;;;;;13.50;7.70;;;;;;;19.43;100.00;98981.41;265784;1269;10001411;-82
2023/07/13 16:56:21;;;;;;;12.20;8.00;;;;;;;19.44;100.00;98987.52;273346;1269;22197;-81
2023/07/13 17:02:23;;;;;;;11.70;7.80;;;;;;;19.50;100.00;98992.52;272767;1267;22415;-81
2023/07/13 17:08:47;;;;;;;10.10;7.20;;;;;;;19.59;100.00;98993.46;273370;1269;22224;-80
2023/07/13 17:15:33;;;;;;;10.80;7.20;;;;;;;19.64;100.00;98993.67;273165;1261;22450;-81
2023/07/13 17:21:35;;;;;;;11.40;7.70;;;;;;;19.62;100.00;98981.36;273284;1267;22218;-80
2023/07/13 17:28:01;;;;;;;12.90;8.80;;;;;;;19.50;100.00;98979.02;273306;1269;22382;-80
2023/07/13 17:34:05;;;;;;;13.20;9.70;;;;;;;19.36;100.00;98973.98;273147;1269;23600;-80
2023/07/13 17:40:17;;;;;;;15.80;9.00;;;;;;;19.39;100.00;98969.94;273411;1269;22367;-81
2023/07/13 17:46:32;;;;;;;13.80;9.40;;;;;;;19.41;100.00;98969.96;273089;1269;23740;-81
2023/07/13 17:52:33;;;;;;;12.20;9.00;;;;;;;19.37;100.00;98968.33;273174;1260;22375;-81
2023/07/13 17:58:37;;;;;;;14.70;9.10;;;;;;;19.35;100.00;98974.09;273442;1268;23851;-81
2023/07/13 18:04:39;;;;;;;12.80;8.60;;;;;;;19.37;100.00;98978.56;273201;1270;22200;-81
2023/07/13 18:10:41;;;;;;;14.80;8.70;;;;;;;19.31;100.00;98977.69;273683;1270;22201;-80
2023/07/13 18:16:49;;;;;;;12.20;8.70;;;;;;;19.24;100.00;98983.20;273410;1269;23597;-81
2023/07/13 18:23:19;;;;;;;16.60;9.10;;;;;;;19.09;100.00;98987.55;273458;1270;22443;-81
2023/07/13 18:29:22;;;;;;;19.50;9.40;;;;;;;19.03;100.00;98984.27;273430;1269;22524;-81
2023/07/13 18:35:47;;;;;;;14.10;9.00;;;;;;;18.98;100.00;99000.85;273802;1256;22200;-80
2023/07/13 18:42:10;;;;;;;11.70;8.20;;;;;;;18.95;100.00;99007.41;273669;1270;23392;-80
2023/07/13 18:48:52;;;;;;;12.00;7.00;;;;;;;18.88;100.00;99009.94;273495;1269;23698;-80
2023/07/13 18:55:39;;;;;;;11.70;6.80;;;;;;;18.76;100.00;99017.27;272700;1272;22429;-81
2023/07/13 19:01:55;;;;;;;9.90;6.30;;;;;;;18.65;100.00;99023.27;272702;1272;22238;-82
2023/07/13 19:07:58;;;;;;;9.70;6.80;;;;;;;18.44;100.00;99035.68;272489;1271;22412;-80
2023/07/13 19:13:59;;;;;;;9.90;7.20;;;;;;;18.37;100.00;99041.10;272494;1272;22556;-80
2023/07/13 19:20:02;;;;;;;9.00;6.90;;;;;;;18.33;100.00;99052.48;272671;1272;22240;-80
2023/07/13 19:26:37;;;;;;;12.20;8.20;;;;;;;18.28;100.00;99065.17;273286;1269;22982;-81
2023/07/13 19:33:28;;;;;;;11.40;6.60;;;;;;;18.16;100.00;99071.41;273365;1269;22408;-79
2023/07/13 19:40:13;;;;;;;14.00;7.70;;;;;;;18.10;100.00;99067.00;273366;1269;22203;-79
2023/07/13 19:46:26;;;;;;;14.60;8.50;;;;;;;18.03;100.00;99065.31;273714;1258;22193;-80
2023/07/13 19:52:28;;;;;;;13.20;8.00;;;;;;;17.99;100.00;99075.67;273381;1255;22315;-81
2023/07/13 19:58:52;;;;;;;10.20;8.10;;;;;;;17.92;100.00;99069.30;273840;1270;22944;-80
2023/07/13 20:04:54;;;;;;;10.80;7.80;;;;;;;17.80;100.00;99065.00;273052;1267;22496;-81
2023/07/13 20:11:19;;;;;;;14.40;8.60;;;;;;;17.69;100.00;99065.89;273461;1266;22955;-80
2023/07/13 20:17:31;;;;;;;10.30;8.70;;;;;;;17.60;100.00;99064.31;273389;1266;22285;-80
2023/07/13 20:23:33;;;;;;;25.90;10.10;;;;;;;17.44;100.00;99073.79;273427;1266;22364;-79
2023/07/13 20:29:34;;;;;;;12.80;9.60;;;;;;;17.36;100.00;99068.20;273590;1268;22889;-79
2023/07/13 20:35:36;;;;;;;11.40;9.20;;;;;;;17.34;100.00;99073.62;273650;1267;22153;-81
2023/07/13 20:42:10;;;;;;;10.70;8.10;;;;;;;17.34;100.00;99084.28;273724;1266;23672;-80
2023/07/13 20:48:47;;;;;;;11.00;8.50;;;;;;;17.43;100.00;99091.84;274059;1269;22416;-80
2023/07/13 20:54:49;;;;;;;11.20;7.40;;;;;;;17.43;100.00;99105.11;271456;1253;22583;-80
2023/07/13 21:00:52;;;;;;;11.80;7.90;;;;;;;17.40;100.00;99104.20;271908;1267;22390;-79
2023/07/13 21:07:16;;;;;;;11.30;8.00;;;;;;;17.37;100.00;99100.92;271687;1267;22392;-80
2023/07/13 21:13:38;;;;;;;11.60;6.80;;;;;;;17.32;100.00;99099.66;273267;1267;22435;-80
2023/07/13 21:20:02;;;;;;;7.50;6.80;;;;;;;17.27;100.00;99099.57;273420;1267;22445;-81
2023/07/13 21:26:27;;;;;;;9.50;7.40;;;;;;;17.25;100.00;99107.73;273487;1267;22202;-80
2023/07/13 21:32:44;;;;;;;10.50;7.80;;;;;;;17.24;100.00;99123.39;273652;1267;22188;-79
2023/07/13 21:38:46;;;;;;;;;;;;;;;17.19;100.00;99123.30;273647;1257;23320;-80
2023/07/13 21:45:24;;;;;;;10.10;5.90;;;;;;;17.15;100.00;99125.65;273673;1267;22494;-80
2023/07/13 21:51:27;;;;;;;9.30;7.10;;;;;;;17.10;100.00;99128.72;273708;1267;22417;-80
2023/07/13 21:57:51;;;;;;;11.10;7.40;;;;;;;17.00;100.00;99126.95;273714;1267;22177;-80
2023/07/13 22:04:01;;;;;;;13.00;8.10;;;;;;;16.85;100.00;99123.74;273697;1260;22893;-82
2023/07/13 22:10:04;;;;;;;12.90;8.20;;;;;;;16.80;100.00;99126.23;273519;1267;22422;-80
2023/07/13 22:16:17;;;;;;;12.20;7.80;;;;;;;16.80;100.00;99127.66;273259;1266;22525;-81
2023/07/13 22:22:19;;;;;;;10.30;8.00;;;;;;;16.76;100.00;99123.92;272370;1267;23342;-80
2023/07/13 22:28:41;;;;;;;12.80;8.30;;;;;;;16.73;100.00;99121.35;273454;1267;23328;-80
2023/07/13 22:34:43;;;;;;;9.80;7.50;;;;;;;16.66;100.00;99126.65;273005;1260;22960;-80
2023/07/13 22:40:45;;;;;;;10.50;7.80;;;;;;;16.58;100.00;99116.08;271191;1264;23965;-79
2023/07/13 22:46:47;;;;;;;12.50;7.40;;;;;;;16.44;100.00;99108.79;272061;1256;22534;-79
2023/07/13 22:52:49;;;;;;;11.70;8.10;;;;;;;16.37;100.00;99111.20;272145;1267;22180;-80
2023/07/13 22:59:12;;;;;;;11.40;8.10;;;;;;;16.30;100.00;99114.77;271618;1267;23420;-80
2023/07/13 23:05:15;;;;;;;13.40;7.60;;;;;;;16.24;100.00;99115.77;271282;1267;22591;-80
2023/07/13 23:11:19;;;;;;;10.80;7.10;;;;;;;16.19;100.00;99122.84;270813;1267;22414;-81
2023/07/13 23:17:21;;;;;;;8.50;6.20;;;;;;;16.15;100.00;99132.27;271286;1267;22517;-80
2023/07/13 23:23:43;;;;;;;10.30;7.40;;;;;;;16.07;100.00;99135.65;271774;1267;22464;-79
2023/07/13 23:30:09;;;;;;;13.60;6.70;;;;;;;16.01;100.00;99138.15;272210;1267;22583;-80
2023/07/13 23:36:14;;;;;;;9.50;7.20;;;;;;;15.97;100.00;99138.18;271499;1267;25345;-81
2023/07/13 23:42:17;;;;;;;11.30;7.00;;;;;;;15.91;100.00;99135.79;271167;1267;24187;-82
2023/07/13 23:48:21;;;;;;;9.70;6.70;;;;;;;15.89;100.00;99134.86;272437;1254;22809;-79
2023/07/13 23:55:02;;;;;;;9.00;6.30;;;;;;;15.85;100.00;99140.41;272622;1257;22444;-80
